createdAt,value
2022-12-26T00:01:29.401Z,51.05
2022-12-26T00:03:57.216Z,53.28
2022-12-26T00:06:29.729Z,46.78
2022-12-26T00:08:57.972Z,52.75
2022-12-26T00:11:26.111Z,56.80
2022-12-26T00:14:15.007Z,53.60
2022-12-26T00:16:44.691Z,60.42
2022-12-26T00:21:39.832Z,60.15
2022-12-26T00:24:11.375Z,53.70
2022-12-26T00:26:38.852Z,58.50
2022-12-26T00:29:06.024Z,57.67
2022-12-26T00:31:34.685Z,60.67
2022-12-26T00:34:02.678Z,64.40
2022-12-26T00:36:32.726Z,58.47
2022-12-26T00:39:02.169Z,63.25
2022-12-26T00:41:29.913Z,61.10
2022-12-26T00:43:57.320Z,64.90
2022-12-26T00:46:26.026Z,70.88
2022-12-26T00:48:53.453Z,65.27
2022-12-26T00:51:21.029Z,66.22
2022-12-26T00:53:48.714Z,52.65
2022-12-26T00:56:16.132Z,54.03
2022-12-26T00:58:43.463Z,58.95
2022-12-26T01:01:16.303Z,48.08
2022-12-26T01:03:44.856Z,46.80
2022-12-26T01:06:13.043Z,57.50
2022-12-26T01:08:40.530Z,54.10
2022-12-26T01:11:11.889Z,36.65
2022-12-26T01:13:39.339Z,31.73
2022-12-26T01:16:07.222Z,39.80
2022-12-26T01:18:35.342Z,35.53
2022-12-26T01:21:07.499Z,39.33
2022-12-26T01:23:34.832Z,44.20
2022-12-26T01:26:14.931Z,41.03
2022-12-26T01:28:51.991Z,41.92
2022-12-26T01:31:21.513Z,43.35
2022-12-26T01:36:17.250Z,40.63
2022-12-26T01:38:45.327Z,44.05
2022-12-26T01:41:16.107Z,40.70
2022-12-26T01:44:04.885Z,46.33
2022-12-26T01:46:45.060Z,41.17
2022-12-26T01:49:39.647Z,50.35
2022-12-26T01:52:16.529Z,37.25
2022-12-26T01:54:49.789Z,36.03
2022-12-26T01:57:25.942Z,38.75
2022-12-26T01:59:55.677Z,37.25
2022-12-26T02:05:11.100Z,29.77
2022-12-26T02:07:43.279Z,31.20
2022-12-26T02:10:22.225Z,32.67
2022-12-26T02:12:49.883Z,28.13
2022-12-26T02:15:18.224Z,28.05
2022-12-26T02:17:47.007Z,29.08
2022-12-26T02:20:26.780Z,35.40
2022-12-26T02:23:08.855Z,26.48
2022-12-26T02:26:00.813Z,30.20
2022-12-26T02:29:15.516Z,31.48
2022-12-26T02:32:19.096Z,32.28
2022-12-26T02:35:07.778Z,31.10
2022-12-26T02:37:56.654Z,27.95
2022-12-26T02:40:27.276Z,23.05
2022-12-26T02:43:05.067Z,22.98
2022-12-26T02:46:03.430Z,25.83
2022-12-26T02:49:02.544Z,25.42
2022-12-26T02:52:34.520Z,29.05
2022-12-26T02:55:32.940Z,29.08
2022-12-26T02:58:46.189Z,32.20
2022-12-26T03:01:56.703Z,31.50
2022-12-26T03:04:47.000Z,45.55
2022-12-26T03:07:40.524Z,28.30
2022-12-26T03:10:51.601Z,24.65
2022-12-26T03:13:36.226Z,26.33
2022-12-26T03:16:29.845Z,26.33
2022-12-26T03:19:05.522Z,28.50
2022-12-26T03:21:42.735Z,32.42
2022-12-26T03:24:13.799Z,41.95
2022-12-26T03:26:53.978Z,44.15
2022-12-26T03:29:42.005Z,32.85
2022-12-26T03:32:12.459Z,27.65
2022-12-26T03:34:44.385Z,32.15
2022-12-26T03:37:48.450Z,25.30
2022-12-26T03:40:58.536Z,27.38
2022-12-26T03:44:39.759Z,28.75
2022-12-26T03:47:54.920Z,26.40
2022-12-26T03:50:58.740Z,32.85
2022-12-26T03:53:52.423Z,30.30
2022-12-26T03:56:54.328Z,27.98
2022-12-26T04:00:10.793Z,29.05
2022-12-26T04:03:03.997Z,41.67
2022-12-26T04:05:53.645Z,28.13
2022-12-26T04:11:36.972Z,23.45
2022-12-26T04:15:01.190Z,28.58
2022-12-26T04:18:01.906Z,33.50
2022-12-26T04:20:49.647Z,23.90
2022-12-26T04:24:05.231Z,25.38
2022-12-26T04:27:02.679Z,24.10
2022-12-26T04:29:48.716Z,23.92
2022-12-26T04:32:54.236Z,29.33
2022-12-26T04:35:52.619Z,27.13
2022-12-26T04:38:45.864Z,27.02
2022-12-26T04:41:33.547Z,25.10
2022-12-26T04:44:08.456Z,29.88
2022-12-26T04:46:47.553Z,32.13
2022-12-26T04:49:35.670Z,42.10
2022-12-26T04:52:10.695Z,32.67
2022-12-26T04:54:38.183Z,28.45
2022-12-26T04:57:06.484Z,26.27
2022-12-26T04:59:34.273Z,28.50
2022-12-26T05:02:20.357Z,32.95
2022-12-26T05:05:06.504Z,36.45
2022-12-26T05:07:55.098Z,36.78
2022-12-26T05:10:26.645Z,40.13
2022-12-26T05:12:54.540Z,30.02
2022-12-26T05:15:22.016Z,35.53
2022-12-26T05:18:24.852Z,37.08
2022-12-26T05:21:10.327Z,29.85
2022-12-26T05:23:56.550Z,30.95
2022-12-26T05:26:42.532Z,41.28
2022-12-26T05:29:09.797Z,29.38
2022-12-26T05:31:37.481Z,33.38
2022-12-26T05:34:06.909Z,42.20
2022-12-26T05:37:00.413Z,36.83
2022-12-26T05:39:27.855Z,42.72
2022-12-26T05:41:55.190Z,40.55
2022-12-26T05:44:22.344Z,29.48
2022-12-26T05:46:49.787Z,25.17
2022-12-26T05:49:17.140Z,18.30
2022-12-26T05:51:44.288Z,25.30
2022-12-26T05:54:11.449Z,16.73
2022-12-26T05:56:40.171Z,20.50
2022-12-26T05:59:09.357Z,30.95
2022-12-26T06:01:36.640Z,29.75
2022-12-26T06:04:04.293Z,37.38
2022-12-26T06:06:31.773Z,37.10
2022-12-26T06:08:58.979Z,32.25
2022-12-26T06:11:27.116Z,24.27
2022-12-26T06:13:54.972Z,24.55
2022-12-26T06:16:22.797Z,32.53
2022-12-26T06:18:50.142Z,32.95
2022-12-26T06:21:19.701Z,34.08
2022-12-26T06:23:47.981Z,54.42
2022-12-26T06:26:16.338Z,47.10
2022-12-26T06:28:44.117Z,46.17
2022-12-26T06:31:21.780Z,47.33
2022-12-26T06:33:53.887Z,42.88
2022-12-26T06:36:24.617Z,38.90
2022-12-26T06:38:53.172Z,37.42
2022-12-26T06:41:23.109Z,42.83
2022-12-26T06:43:50.834Z,32.92
2022-12-26T06:46:22.062Z,37.38
2022-12-26T06:48:49.708Z,38.92
2022-12-26T06:51:23.751Z,70.45
2022-12-26T06:53:53.031Z,71.38
2022-12-26T06:56:26.683Z,62.67
2022-12-26T06:58:59.837Z,65.78
2022-12-26T07:01:29.087Z,61.75
2022-12-26T07:03:57.264Z,54.70
2022-12-26T07:06:31.403Z,49.42
2022-12-26T07:09:13.623Z,44.78
2022-12-26T07:11:44.727Z,41.85
2022-12-26T07:14:14.618Z,44.92
2022-12-26T07:16:44.260Z,27.63
2022-12-26T07:21:41.249Z,37.50
2022-12-26T07:24:21.668Z,34.25
2022-12-26T07:26:49.697Z,29.85
2022-12-26T07:29:17.267Z,25.75
2022-12-26T07:31:44.835Z,37.50
2022-12-26T07:34:12.336Z,59.45
2022-12-26T07:36:40.807Z,69.47
2022-12-26T07:39:08.202Z,53.83
2022-12-26T07:41:54.312Z,61.35
2022-12-26T07:44:21.439Z,51.95
2022-12-26T07:46:48.829Z,51.72
2022-12-26T07:49:16.165Z,51.70
2022-12-26T07:51:43.635Z,53.60
2022-12-26T07:54:11.965Z,48.22
2022-12-26T07:56:40.443Z,46.58
2022-12-26T07:59:15.725Z,39.35
2022-12-26T08:01:44.037Z,33.85
2022-12-26T08:04:12.370Z,33.45
2022-12-26T08:06:39.771Z,32.55
2022-12-26T08:09:06.984Z,30.30
2022-12-26T08:11:35.392Z,26.25
2022-12-26T08:14:03.015Z,29.15
2022-12-26T08:16:30.795Z,27.70
2022-12-26T08:18:58.328Z,33.70
2022-12-26T08:21:25.734Z,37.00
2022-12-26T08:23:52.868Z,39.28
2022-12-26T08:26:21.893Z,38.42
2022-12-26T08:28:52.502Z,38.95
2022-12-26T08:31:21.091Z,39.35
2022-12-26T08:33:48.919Z,42.10
2022-12-26T08:36:17.732Z,27.13
2022-12-26T08:38:46.105Z,27.73
2022-12-26T08:41:13.893Z,22.50
2022-12-26T08:46:28.340Z,20.33
2022-12-26T08:48:55.535Z,21.08
2022-12-26T08:51:24.604Z,17.15
2022-12-26T08:53:53.656Z,94.50
2022-12-26T08:56:25.065Z,78.18
2022-12-26T08:58:52.876Z,67.25
2022-12-26T09:01:26.527Z,174.52
2022-12-26T09:03:56.625Z,146.02
2022-12-26T09:06:24.281Z,117.93
2022-12-26T09:08:52.119Z,123.20
2022-12-26T09:11:26.160Z,69.25
2022-12-26T09:13:55.290Z,62.53
2022-12-26T09:16:30.467Z,59.60
2022-12-26T09:19:02.036Z,48.63
2022-12-26T09:21:29.893Z,42.90
2022-12-26T09:24:07.261Z,42.38
2022-12-26T09:26:34.703Z,36.13
2022-12-26T09:29:02.758Z,38.50
2022-12-26T09:31:32.851Z,36.60
2022-12-26T09:34:05.647Z,27.33
2022-12-26T09:36:37.645Z,28.70
2022-12-26T09:39:06.307Z,23.40
2022-12-26T09:42:01.352Z,25.23
2022-12-26T09:45:03.989Z,20.48
2022-12-26T09:48:18.930Z,21.98
2022-12-26T09:50:50.657Z,27.20
2022-12-26T09:53:34.035Z,22.83
2022-12-26T09:56:08.607Z,19.38
2022-12-26T09:58:56.689Z,18.05
2022-12-26T10:01:35.340Z,22.23
2022-12-26T10:04:28.427Z,18.40
2022-12-26T10:07:03.638Z,20.60
2022-12-26T10:09:45.802Z,23.48
2022-12-26T10:12:41.932Z,25.00
2022-12-26T10:15:41.814Z,22.23
2022-12-26T10:18:52.958Z,24.17
2022-12-26T10:22:18.567Z,33.83
2022-12-26T10:24:48.024Z,25.67
2022-12-26T10:30:05.337Z,24.48
2022-12-26T10:32:41.143Z,32.13
2022-12-26T10:35:38.499Z,34.45
2022-12-26T10:38:33.818Z,26.95
2022-12-26T10:41:20.964Z,21.55
2022-12-26T10:43:48.197Z,22.92
2022-12-26T10:46:37.035Z,34.00
2022-12-26T10:49:05.024Z,26.45
2022-12-26T10:51:32.966Z,28.98
2022-12-26T10:54:00.072Z,31.35
2022-12-26T10:56:28.106Z,27.58
2022-12-26T10:59:05.433Z,26.42
2022-12-26T11:01:37.290Z,22.25
2022-12-26T11:04:31.271Z,19.83
2022-12-26T11:07:11.568Z,21.58
2022-12-26T11:09:42.631Z,23.83
2022-12-26T11:12:49.654Z,16.98
2022-12-26T11:15:37.190Z,20.25
2022-12-26T11:18:36.407Z,23.45
2022-12-26T11:21:18.780Z,33.45
2022-12-26T11:23:49.065Z,41.58
2022-12-26T11:26:32.035Z,54.35
2022-12-26T11:29:36.605Z,54.53
2022-12-26T11:32:05.340Z,26.90
2022-12-26T11:34:46.867Z,16.50
2022-12-26T11:37:28.696Z,13.48
2022-12-26T11:39:57.443Z,38.55
2022-12-26T11:42:26.263Z,20.85
2022-12-26T11:44:57.217Z,20.90
2022-12-26T11:47:29.343Z,24.42
2022-12-26T11:50:03.821Z,14.02
2022-12-26T11:52:36.727Z,26.35
2022-12-26T11:55:22.603Z,17.75
2022-12-26T11:58:09.560Z,36.85
2022-12-26T12:01:05.025Z,26.25
2022-12-26T12:03:35.779Z,27.70
2022-12-26T12:06:19.072Z,44.03
2022-12-26T12:08:52.518Z,26.05
2022-12-26T12:11:26.856Z,12.77
2022-12-26T12:14:10.056Z,16.63
2022-12-26T12:17:10.521Z,14.82
2022-12-26T12:20:17.372Z,23.63
2022-12-26T12:22:50.305Z,7.55
2022-12-26T12:25:44.200Z,34.97
2022-12-26T12:28:55.646Z,9.98
2022-12-26T12:32:03.082Z,6.13
2022-12-26T12:35:03.733Z,8.27
2022-12-26T12:38:20.767Z,8.23
2022-12-26T12:41:26.153Z,5.07
2022-12-26T12:44:10.272Z,7.75
2022-12-26T12:47:16.522Z,6.90
2022-12-26T12:50:15.262Z,9.27
2022-12-26T12:53:14.512Z,8.27
2022-12-26T12:58:25.459Z,19.45
2022-12-26T13:00:58.987Z,7.10
2022-12-26T13:03:53.682Z,5.63
2022-12-26T13:06:30.819Z,6.70
2022-12-26T13:09:25.807Z,4.65
2022-12-26T13:12:11.673Z,9.68
2022-12-26T13:15:01.909Z,7.13
2022-12-26T13:17:41.119Z,7.53
2022-12-26T13:20:37.786Z,12.65
2022-12-26T13:23:45.537Z,9.98
2022-12-26T13:26:20.261Z,9.15
2022-12-26T13:29:11.413Z,12.23
2022-12-26T13:31:40.643Z,9.32
2022-12-26T13:36:51.719Z,7.63
2022-12-26T13:39:29.081Z,6.13
2022-12-26T13:42:22.613Z,3.95
2022-12-26T13:44:53.309Z,6.38
2022-12-26T13:47:38.973Z,5.47
2022-12-26T13:51:04.316Z,10.15
2022-12-26T13:53:38.544Z,7.60
2022-12-26T13:56:18.049Z,6.30
2022-12-26T13:59:06.692Z,6.25
2022-12-26T14:02:06.957Z,12.53
2022-12-26T14:04:58.771Z,8.63
2022-12-26T14:08:30.741Z,22.55
2022-12-26T14:11:19.571Z,21.85
2022-12-26T14:14:24.520Z,9.20
2022-12-26T14:16:54.680Z,12.88
2022-12-26T14:19:49.720Z,10.20
2022-12-26T14:22:35.368Z,11.23
2022-12-26T14:25:32.316Z,6.80
2022-12-26T14:28:30.629Z,10.80
2022-12-26T14:31:37.578Z,14.88
2022-12-26T14:34:35.309Z,51.90
2022-12-26T14:37:47.919Z,45.42
2022-12-26T14:40:35.605Z,39.67
2022-12-26T14:43:11.806Z,19.20
2022-12-26T14:45:45.108Z,16.63
2022-12-26T14:48:15.500Z,88.50
2022-12-26T14:50:54.843Z,68.38
2022-12-26T14:56:07.385Z,46.47
2022-12-26T14:58:46.582Z,38.08
2022-12-26T15:01:17.252Z,44.17
2022-12-26T15:03:47.332Z,36.97
2022-12-26T15:06:20.734Z,34.97
2022-12-26T15:09:35.522Z,34.97
2022-12-26T15:12:40.205Z,25.23
2022-12-26T15:15:27.571Z,32.63
2022-12-26T15:18:31.612Z,37.58
2022-12-26T15:21:48.452Z,37.47
2022-12-26T15:27:58.781Z,30.80
2022-12-26T15:30:58.092Z,23.38
2022-12-26T15:36:42.868Z,19.85
2022-12-26T15:39:34.040Z,39.60
2022-12-26T15:42:29.880Z,17.50
2022-12-26T15:45:32.078Z,10.98
2022-12-26T15:48:45.103Z,13.95
2022-12-26T15:51:37.023Z,26.63
2022-12-26T15:54:24.309Z,23.30
2022-12-26T15:57:24.160Z,29.38
2022-12-26T16:00:10.524Z,34.42
2022-12-26T16:03:13.074Z,31.50
2022-12-26T16:06:25.250Z,35.45
2022-12-26T16:09:22.401Z,23.40
2022-12-26T16:12:00.953Z,17.63
2022-12-26T16:14:37.993Z,24.27
2022-12-26T16:17:14.215Z,24.95
2022-12-26T16:19:44.692Z,23.08
2022-12-26T16:22:43.323Z,20.88
2022-12-26T16:25:21.799Z,20.52
2022-12-26T16:27:55.869Z,23.67
2022-12-26T16:30:36.008Z,20.75
2022-12-26T16:33:04.759Z,20.17
2022-12-26T16:35:39.776Z,40.15
2022-12-26T16:38:15.324Z,55.22
2022-12-26T16:40:52.076Z,50.95
2022-12-26T16:43:24.123Z,38.45
2022-12-26T16:45:58.243Z,45.45
2022-12-26T16:48:29.189Z,42.22
2022-12-26T16:51:02.908Z,47.83
2022-12-26T16:53:36.115Z,50.25
2022-12-26T16:56:30.553Z,50.90
2022-12-26T16:59:21.906Z,48.38
2022-12-26T17:02:00.084Z,47.70
2022-12-26T17:04:29.709Z,37.90
2022-12-26T17:09:44.700Z,43.00
2022-12-26T17:12:26.822Z,38.87
2022-12-26T17:14:56.414Z,55.42
2022-12-26T17:17:23.583Z,34.72
2022-12-26T17:19:54.810Z,82.25
2022-12-26T17:22:33.582Z,67.60
2022-12-26T17:25:32.981Z,48.50
2022-12-26T17:30:42.412Z,25.02
2022-12-26T17:33:32.377Z,20.80
2022-12-26T17:39:12.277Z,24.83
2022-12-26T17:41:59.854Z,47.80
2022-12-26T17:44:45.162Z,76.25
2022-12-26T17:47:17.457Z,74.95
2022-12-26T17:49:44.745Z,74.63
2022-12-26T17:52:14.074Z,77.40
2022-12-26T17:54:41.279Z,83.47
2022-12-26T17:57:20.998Z,74.60
2022-12-26T17:59:50.048Z,67.97
2022-12-26T18:02:18.541Z,68.68
2022-12-26T18:04:47.425Z,81.57
2022-12-26T18:07:30.548Z,75.18
2022-12-26T18:10:00.898Z,75.82
2022-12-26T18:12:28.551Z,83.00
2022-12-26T18:15:01.417Z,77.30
2022-12-26T18:17:32.700Z,75.40
2022-12-26T18:20:00.788Z,81.78
2022-12-26T18:22:28.074Z,50.13
2022-12-26T18:24:55.235Z,37.63
2022-12-26T18:27:32.083Z,22.45
2022-12-26T18:30:00.521Z,52.63
2022-12-26T18:32:29.893Z,52.03
2022-12-26T18:34:57.974Z,61.33
2022-12-26T18:37:28.057Z,72.15
2022-12-26T18:39:55.472Z,74.22
2022-12-26T18:42:22.722Z,38.60
2022-12-26T18:44:49.909Z,34.55
2022-12-26T18:47:19.873Z,26.95
2022-12-26T18:49:48.130Z,40.92
2022-12-26T18:52:17.410Z,35.60
2022-12-26T18:54:45.421Z,32.38
2022-12-26T18:57:19.224Z,32.47
2022-12-26T18:59:47.578Z,34.88
2022-12-26T19:02:19.662Z,35.67
2022-12-26T19:04:48.289Z,51.97
2022-12-26T19:07:19.542Z,68.63
2022-12-26T19:09:54.362Z,61.33
2022-12-26T19:12:23.294Z,44.10
2022-12-26T19:14:51.495Z,48.22
2022-12-26T19:17:18.746Z,69.55
2022-12-26T19:19:47.680Z,65.30
2022-12-26T19:22:14.919Z,42.50
2022-12-26T19:24:42.093Z,36.30
2022-12-26T19:27:09.279Z,21.95
2022-12-26T19:29:36.680Z,17.33
2022-12-26T19:32:04.138Z,19.58
2022-12-26T19:34:31.366Z,25.38
2022-12-26T19:36:58.543Z,36.40
2022-12-26T19:39:26.000Z,32.33
2022-12-26T19:41:53.154Z,31.00
2022-12-26T19:44:20.397Z,25.20
2022-12-26T19:46:47.599Z,28.20
2022-12-26T19:49:14.951Z,40.47
2022-12-26T19:51:42.156Z,50.30
2022-12-26T19:54:09.337Z,44.40
2022-12-26T19:56:36.540Z,47.75
2022-12-26T19:59:03.931Z,51.40
2022-12-26T20:01:32.045Z,52.17
2022-12-26T20:04:02.616Z,47.80
2022-12-26T20:06:32.836Z,61.45
2022-12-26T20:09:04.135Z,54.75
2022-12-26T20:11:35.409Z,46.72
2022-12-26T20:14:05.874Z,64.57
2022-12-26T20:19:23.213Z,77.13
2022-12-26T20:21:50.549Z,74.90
2022-12-26T20:24:20.687Z,68.90
2022-12-26T20:26:48.993Z,66.40
2022-12-26T20:29:16.996Z,75.57
2022-12-26T20:31:44.897Z,80.05
2022-12-26T20:34:12.783Z,101.97
2022-12-26T20:36:41.131Z,87.15
2022-12-26T20:39:15.017Z,74.95
2022-12-26T20:41:42.626Z,61.20
2022-12-26T20:44:13.193Z,58.83
2022-12-26T20:46:41.589Z,79.50
2022-12-26T20:49:09.311Z,62.35
2022-12-26T20:51:39.556Z,64.38
2022-12-26T20:54:09.020Z,72.88
2022-12-26T20:56:37.917Z,71.50
2022-12-26T20:59:06.925Z,88.35
2022-12-26T21:01:36.043Z,76.15
2022-12-26T21:04:04.391Z,79.00
2022-12-26T21:06:35.689Z,89.97
2022-12-26T21:09:04.990Z,71.57
2022-12-26T21:11:37.433Z,73.70
2022-12-26T21:14:14.453Z,75.70
2022-12-26T21:16:46.502Z,66.35
2022-12-26T21:19:15.706Z,63.45
2022-12-26T21:21:50.969Z,65.93
2022-12-26T21:24:31.156Z,81.10
2022-12-26T21:26:58.452Z,92.25
2022-12-26T21:29:29.982Z,78.25
2022-12-26T21:31:58.648Z,51.92
2022-12-26T21:34:28.924Z,52.22
2022-12-26T21:37:15.673Z,42.45
2022-12-26T21:39:44.232Z,40.05
2022-12-26T21:42:11.632Z,38.90
2022-12-26T21:44:39.151Z,31.30
2022-12-26T21:47:10.010Z,40.40
2022-12-26T21:49:37.376Z,61.72
2022-12-26T21:52:07.607Z,54.47
2022-12-26T21:54:53.843Z,54.15
2022-12-26T21:57:22.190Z,54.03
2022-12-26T21:59:55.701Z,50.72
2022-12-26T22:02:54.958Z,49.90
2022-12-26T22:05:26.637Z,50.83
2022-12-26T22:07:57.523Z,60.05
2022-12-26T22:10:47.575Z,55.05
2022-12-26T22:13:15.476Z,101.22
2022-12-26T22:16:03.009Z,61.42
2022-12-26T22:18:40.701Z,111.72
2022-12-26T22:21:20.596Z,72.65
2022-12-26T22:23:51.408Z,55.22
2022-12-26T22:26:21.272Z,45.75
2022-12-26T22:28:48.884Z,33.35
2022-12-26T22:31:31.565Z,43.30
2022-12-26T22:34:06.242Z,61.50
2022-12-26T22:36:33.982Z,65.97
2022-12-26T22:39:01.709Z,87.10
2022-12-26T22:41:29.058Z,83.30
2022-12-26T22:43:56.461Z,49.00
2022-12-26T22:46:24.091Z,41.65
2022-12-26T22:48:51.556Z,49.45
2022-12-26T22:51:23.128Z,44.78
2022-12-26T22:53:55.298Z,44.08
2022-12-26T22:56:22.455Z,46.58
2022-12-26T22:58:54.701Z,38.05
2022-12-26T23:01:22.776Z,42.30
2022-12-26T23:03:50.085Z,42.15
2022-12-26T23:06:28.687Z,47.45
2022-12-26T23:08:58.920Z,35.97
2022-12-26T23:11:35.040Z,37.83
2022-12-26T23:14:05.531Z,39.97
2022-12-26T23:16:56.834Z,41.00
2022-12-26T23:20:04.086Z,63.25
2022-12-26T23:22:31.773Z,48.25
2022-12-26T23:24:59.006Z,43.05
2022-12-26T23:27:45.045Z,46.35
2022-12-26T23:30:19.210Z,43.47
2022-12-26T23:32:52.477Z,53.15
2022-12-26T23:35:21.563Z,52.15
2022-12-26T23:37:48.951Z,49.97
2022-12-26T23:40:18.283Z,47.20
2022-12-26T23:42:45.448Z,46.30
2022-12-26T23:45:14.454Z,45.08
2022-12-26T23:47:43.547Z,55.60
2022-12-26T23:50:12.673Z,43.97
2022-12-26T23:52:40.105Z,54.42
2022-12-26T23:55:09.687Z,45.88
2022-12-26T23:57:37.060Z,33.25
